Pagrindinis puslapis
METAR-TAF:

METAR-TAF

Oro uostai :

Teheranas, Iranas

platuma: 35-41N, ilguma: 051-21E, Aukštis: 1204 m

Dabartinis oras

Ataskaita buvo paskelbta 34 minutes, ne 12:00 UTC
Vėjas 8 kt iš Vakarų
Temperatūra 26°C
Drėgmė 14%
Slėgis 1021 hPa
Matomumas 10 km arba daugiau
nėra debesų žemiau 1500 m ir nėra kamuolinių lietaus debesų

METAR: OIII 161200Z 26008KT CAVOK 26/M04 Q1020 A3015

Laikas: 16:04 (12:34 UTC)

Prognozė

Ataskaita buvo paskelbta 1 valandą ir 4 minutes, ne 11:30 UTC
Prognozė galioja nuo 16 metu 12 UTC su 17 metu 18 UTC
Vėjas 8 kt iš Pietų/Pietvakarių
Matomumas: 8000 m
Mažai debesys ne aukštis 4000 ft
Laikinai
nuo 17 metu 10 UTC su 17 metu 16 UTC
Mažai debesys ne aukštis 3500 ft, Liūtiniai kamuoliniai debesys.
Mažai debesys ne aukštis 4000 ft
Išsisklaidę debesys ne aukštis 10000 ft

TAF: OIII 161130Z 1612/1718 20008KT 8000 FEW040 TEMPO 1710/1716 FEW035CB FEW040 SCT100

Orai ataskaitas ir orų prognozės (METAR, TAF).

turimą stotys yra geltonos ir raudonos taškus žemėlapyje.

Perkelti pele per norėdami pamatyti stoties vardą.

Tada spustelėkite, norėdami matyti oro stebėjimo ir prognozės.

Norėdami pakeisti žemėlapį: spustelėkite ant žalios mygtukų su juodo kryžiaus žemyn,; žalią mygtuką su brūkšneliu, jei norite nutolinti; arba žalių rodyklių gretimoms žemėlapius.


METAR-TAF: